Time;durP1;ratioP1;P1;durP2;ratioP2;P2;SDS_P1;SDS_P2;PMS_P1;PMS_P2;Temp;Humidity;BMP_temperature;BMP_pressure;BME280_temperature;BME280_humidity;BME280_pressure;Samples;Min_cycle;Max_cycle;Signal;HPM_P1;HPM_P2
2023/04/30 00:02:38;;;;;;;14.20;4.63;;;;;;;;;;6192896;23;20047;-90
2023/04/30 00:05:23;;;;;;;9.95;4.57;;;;;;;;;;6171667;23;20119;-91
2023/04/30 00:08:07;;;;;;;15.00;4.93;;;;;;;;;;6192445;23;20344;-91
2023/04/30 00:10:52;;;;;;;9.57;4.50;;;;;;;;;;6193018;23;20020;-92
2023/04/30 00:13:37;;;;;;;12.82;4.25;;;;;;;;;;6192930;23;20059;-90
2023/04/30 00:16:21;;;;;;;15.43;6.07;;;;;;;;;;6171036;23;20051;-93
2023/04/30 00:19:06;;;;;;;12.07;4.28;;;;;;;;;;6192836;23;20019;-94
2023/04/30 00:21:51;;;;;;;13.20;4.35;;;;;;;;;;6181207;23;20063;-92
2023/04/30 00:24:35;;;;;;;9.02;4.30;;;;;;;;;;6214990;23;20080;-89
2023/04/30 00:27:20;;;;;;;9.95;4.55;;;;;;;;;;6215506;23;20138;-87
2023/04/30 00:30:05;;;;;;;14.60;4.75;;;;;;;;;;6192143;23;20055;-92
2023/04/30 00:32:50;;;;;;;16.38;4.95;;;;;;;;;;6192704;23;20596;-93
2023/04/30 00:35:35;;;;;;;12.68;4.55;;;;;;;;;;6215006;23;20010;-91
2023/04/30 00:38:20;;;;;;;11.43;4.80;;;;;;;;;;6192049;23;20043;-89
2023/04/30 00:41:04;;;;;;;13.05;5.38;;;;;;;;;;6192143;23;20016;-90
2023/04/30 00:43:49;;;;;;;12.68;4.15;;;;;;;;;;6183222;23;20378;-90
2023/04/30 00:46:34;;;;;;;12.57;4.85;;;;;;;;;;6183724;23;20096;-90
2023/04/30 00:49:18;;;;;;;16.60;4.95;;;;;;;;;;6184630;23;20461;-88
2023/04/30 00:52:03;;;;;;;8.88;4.32;;;;;;;;;;6184284;23;20016;-91
2023/04/30 00:54:49;;;;;;;21.38;6.97;;;;;;;;;;6169869;23;20032;-95
2023/04/30 00:57:34;;;;;;;13.27;4.97;;;;;;;;;;6133900;23;20069;-91
2023/04/30 01:00:19;;;;;;;14.68;6.57;;;;;;;;;;6132661;23;20016;-86
2023/04/30 01:03:04;;;;;;;14.63;6.20;;;;;;;;;;6112445;23;20067;-88
2023/04/30 01:05:49;;;;;;;17.48;5.18;;;;;;;;;;6132998;23;20047;-87
2023/04/30 01:08:33;;;;;;;12.05;5.35;;;;;;;;;;6133167;23;20020;-89
2023/04/30 01:11:46;;;;;;;13.65;5.80;;;5.90;99.90;;;;;;6154195;23;20071;-88
2023/04/30 01:14:34;;;;;;;12.00;6.05;;;;;;;;;;6132340;23;20440;-90
2023/04/30 01:17:44;;;;;;;14.20;6.10;;;5.80;99.90;;;;;;6132087;23;20020;-93
2023/04/30 01:20:29;;;;;;;11.93;5.47;;;;;;;;;;6154322;23;20048;-90
2023/04/30 01:23:35;;;;;;;11.82;5.18;;;;;;;;;;6132337;23;20091;-89
2023/04/30 01:26:38;;;;;;;9.80;4.75;;;;;;;;;;6154092;23;20021;-92
2023/04/30 01:29:24;;;;;;;11.18;5.13;;;;;;;;;;6157898;23;20067;-93
2023/04/30 01:32:10;;;;;;;10.07;5.35;;;;;;;;;;6154898;23;20017;-91
2023/04/30 01:34:55;;;;;;;9.27;5.07;;;;;;;;;;6154613;23;20044;-90
2023/04/30 01:37:51;;;;;;;14.40;5.65;;;;;;;;;;6132761;23;20030;-90
2023/04/30 01:40:42;;;;;;;10.88;5.50;;;;;;;;;;6156342;23;20067;-86
2023/04/30 01:43:59;;;;;;;11.50;6.28;;;;;;;;;;6153925;23;20451;-87
2023/04/30 01:46:49;;;;;;;12.68;6.25;;;;;;;;;;6084330;23;20087;-92
2023/04/30 01:49:52;;;;;;;11.55;5.80;;;5.50;99.90;;;;;;6131808;23;20016;-89
2023/04/30 01:52:38;;;;;;;16.15;6.05;;;;;;;;;;6131834;23;20448;-90
2023/04/30 01:55:22;;;;;;;11.85;4.80;;;;;;;;;;6153638;23;20103;-90
2023/04/30 01:58:09;;;;;;;13.15;5.38;;;;;;;;;;6132117;23;20519;-92
2023/04/30 02:00:54;;;;;;;13.95;6.35;;;;;;;;;;6154475;23;20052;-92
2023/04/30 02:03:39;;;;;;;10.38;5.65;;;;;;;;;;6131904;23;20017;-91
2023/04/30 02:06:28;;;;;;;16.80;7.00;;;;;;;;;;6132123;23;20059;-90
2023/04/30 02:09:13;;;;;;;16.13;6.57;;;;;;;;;;6132537;23;20025;-91
2023/04/30 02:11:58;;;;;;;16.55;6.60;;;;;;;;;;6112215;23;20016;-93
2023/04/30 02:14:42;;;;;;;9.82;6.25;;;;;;;;;;6132500;23;20032;-92
2023/04/30 02:17:27;;;;;;;16.35;7.05;;;;;;;;;;6130851;23;20083;-91
2023/04/30 02:20:11;;;;;;;13.75;6.30;;;;;;;;;;6132168;23;20050;-91
2023/04/30 02:22:56;;;;;;;14.55;5.95;;;;;;;;;;6132290;23;20126;-89
2023/04/30 02:25:41;;;;;;;11.00;6.07;;;;;;;;;;6154109;23;20079;-91
2023/04/30 02:28:26;;;;;;;16.50;6.78;;;;;;;;;;6132348;23;20336;-91
2023/04/30 02:31:10;;;;;;;10.50;5.63;;;;;;;;;;6131992;23;20093;-88
2023/04/30 02:33:55;;;;;;;11.02;5.85;;;;;;;;;;6132155;23;20076;-89
2023/04/30 02:36:39;;;;;;;10.70;7.05;;;;;;;;;;6153484;23;20547;-91
2023/04/30 02:39:24;;;;;;;14.32;5.90;;;;;;;;;;6153522;23;20091;-93
2023/04/30 02:42:09;;;;;;;9.60;5.40;;;;;;;;;;6132215;23;20037;-89
2023/04/30 02:44:53;;;;;;;16.55;6.30;;;;;;;;;;6154036;23;20041;-90
2023/04/30 02:47:38;;;;;;;9.98;5.70;;;;;;;;;;6131302;23;20071;-90
2023/04/30 02:50:22;;;;;;;12.48;6.13;;;;;;;;;;6131085;23;20016;-91
2023/04/30 02:53:07;;;;;;;11.13;6.10;;;;;;;;;;6132200;23;20064;-94
2023/04/30 02:55:51;;;;;;;11.38;6.18;;;;;;;;;;6132140;23;20029;-90
2023/04/30 02:58:36;;;;;;;14.98;6.88;;;;;;;;;;6131099;23;20100;-90
2023/04/30 03:01:20;;;;;;;15.45;7.15;;;;;;;;;;6153815;23;20020;-90
2023/04/30 03:04:05;;;;;;;14.93;6.30;;;;;;;;;;6153872;23;20081;-90
2023/04/30 03:06:50;;;;;;;12.98;6.55;;;;;;;;;;6132400;23;20044;-91
2023/04/30 03:09:35;;;;;;;12.52;6.00;;;;;;;;;;6110796;23;20340;-90
2023/04/30 03:12:20;;;;;;;11.20;6.18;;;;;;;;;;6153847;23;20032;-91
2023/04/30 03:15:05;;;;;;;11.82;7.22;;;;;;;;;;6131816;23;20020;-91
2023/04/30 03:17:50;;;;;;;12.75;6.15;;;;;;;;;;6111242;23;20072;-89
2023/04/30 03:20:35;;;;;;;12.75;6.22;;;;;;;;;;6131107;23;20400;-91
2023/04/30 03:23:20;;;;;;;11.93;5.95;;;;;;;;;;6132321;23;20036;-89
2023/04/30 03:26:05;;;;;;;10.85;5.63;;;;;;;;;;6133502;23;20076;-87
2023/04/30 03:28:50;;;;;;;14.05;6.20;;;;;;;;;;6133505;23;20480;-88
2023/04/30 03:31:35;;;;;;;14.95;6.50;;;;;;;;;;6155338;23;20164;-89
2023/04/30 03:34:19;;;;;;;15.45;7.18;;;;;;;;;;6133602;23;20020;-88
2023/04/30 03:37:04;;;;;;;11.68;6.90;;;;;;;;;;6133671;23;20448;-86
2023/04/30 03:39:48;;;;;;;14.48;7.55;;;;;;;;;;6154937;23;20031;-89
2023/04/30 03:42:33;;;;;;;15.55;7.35;;;;;;;;;;6155207;23;20012;-88
2023/04/30 03:45:17;;;;;;;13.25;5.80;;;;;;;;;;6134033;23;20017;-88
2023/04/30 03:48:02;;;;;;;12.85;6.95;;;;;;;;;;6155892;23;20121;-90
2023/04/30 03:50:46;;;;;;;12.27;6.50;;;;;;;;;;6133443;23;20080;-87
2023/04/30 03:53:34;;;;;;;15.65;6.97;;;;;;;;;;6155128;23;20052;-88
2023/04/30 03:56:20;;;;;;;12.43;6.90;;;;;;;;;;6155829;23;20101;-88
2023/04/30 03:59:05;;;;;;;14.57;7.43;;;;;;;;;;6133555;23;20336;-88
2023/04/30 04:01:50;;;;;;;10.63;7.20;;;;;;;;;;6155081;23;20194;-89
2023/04/30 04:04:35;;;;;;;13.50;7.82;;;;;;;;;;6132755;23;20031;-89
2023/04/30 04:07:20;;;;;;;12.73;7.53;;;;;;;;;;6113072;23;20056;-89
2023/04/30 04:10:04;;;;;;;16.58;6.97;;;;;;;;;;6155898;23;20023;-89
2023/04/30 04:12:49;;;;;;;13.60;7.45;;;;;;;;;;6133357;23;20076;-89
2023/04/30 04:15:34;;;;;;;14.45;7.53;;;;;;;;;;6154763;23;20106;-91
2023/04/30 04:18:18;;;;;;;17.80;7.32;;;;;;;;;;6155445;23;20024;-89
2023/04/30 04:21:03;;;;;;;14.82;6.70;;;;;;;;;;6155458;23;20080;-89
2023/04/30 04:23:48;;;;;;;14.38;5.88;;;;;;;;;;6154753;23;20016;-89
2023/04/30 04:26:37;;;;;;;14.15;6.72;;;;;;;;;;6155129;23;20024;-90
2023/04/30 04:29:22;;;;;;;15.88;6.78;;;;;;;;;;6112821;23;20100;-88
2023/04/30 04:32:09;;;;;;;12.57;6.60;;;;;;;;;;6133425;23;20341;-89
2023/04/30 04:34:54;;;;;;;12.43;6.78;;;;;;;;;;6132271;23;20047;-90
2023/04/30 04:37:38;;;;;;;9.13;5.72;;;;;;;;;;6154550;23;20559;-89
2023/04/30 04:40:23;;;;;;;11.75;5.97;;;;;;;;;;6112565;23;20016;-89
2023/04/30 04:43:07;;;;;;;11.55;6.15;;;;;;;;;;6154861;23;20071;-89
2023/04/30 04:45:52;;;;;;;15.43;6.63;;;;;;;;;;6132982;23;20017;-89
2023/04/30 04:48:36;;;;;;;9.07;6.28;;;;;;;;;;6155423;23;20020;-91
2023/04/30 04:51:21;;;;;;;9.60;6.22;;;;;;;;;;6133190;23;20044;-89
2023/04/30 04:54:06;;;;;;;13.85;6.35;;;;;;;;;;6133063;23;20344;-88
2023/04/30 04:56:50;;;;;;;13.55;6.68;;;;;;;;;;6154831;23;20328;-89
2023/04/30 04:59:35;;;;;;;11.77;6.32;;;;;;;;;;6132984;23;20100;-90
2023/04/30 05:02:22;;;;;;;15.75;7.32;;;;;;;;;;6112184;23;20069;-90
2023/04/30 05:05:07;;;;;;;11.25;6.50;;;;;;;;;;6133510;23;20455;-91
2023/04/30 05:07:53;;;;;;;12.57;6.05;;;;;;;;;;6132449;23;20459;-89
2023/04/30 05:10:38;;;;;;;17.92;7.63;;;;;;;;;;6132996;23;20345;-90
2023/04/30 05:13:22;;;;;;;13.70;7.28;;;;;;;;;;6154863;23;20076;-90
2023/04/30 05:16:07;;;;;;;16.70;7.32;;;;;;;;;;6132221;23;20087;-88
2023/04/30 05:18:52;;;;;;;13.52;7.07;;;;;;;;;;6132013;23;20017;-89
2023/04/30 05:21:36;;;;;;;14.90;7.35;;;;;;;;;;6154715;23;20021;-88
2023/04/30 05:24:21;;;;;;;20.02;7.07;;;;;;;;;;6154920;23;20348;-90
2023/04/30 05:27:05;;;;;;;14.32;6.57;;;;;;;;;;6132499;23;20755;-89
2023/04/30 05:29:50;;;;;;;14.27;6.47;;;;;;;;;;6111744;23;20076;-88
2023/04/30 05:32:35;;;;;;;15.38;6.57;;;;;;;;;;6132544;23;20048;-90
2023/04/30 05:35:19;;;;;;;14.68;6.60;;;;;;;;;;6154734;23;20048;-89
2023/04/30 05:38:04;;;;;;;14.93;5.57;;;;;;;;;;6153791;23;20024;-90
2023/04/30 05:40:49;;;;;;;13.23;5.18;;;;;;;;;;6111681;23;20020;-88
2023/04/30 05:43:33;;;;;;;14.75;5.10;;;;;;;;;;6154519;23;20017;-89
2023/04/30 05:46:18;;;;;;;11.73;4.85;;;;;;;;;;6131928;23;20108;-89
2023/04/30 05:49:02;;;;;;;14.27;5.28;;;;;;;;;;6132151;23;20516;-89
2023/04/30 05:51:47;;;;;;;15.77;5.07;;;;;;;;;;6151485;23;20064;-89
2023/04/30 05:54:31;;;;;;;16.65;7.35;;;;;;;;;;6153385;23;20100;-90
2023/04/30 05:57:16;;;;;;;19.70;5.25;;;;;;;;;;6111214;23;20032;-90
2023/04/30 06:00:01;;;;;;;11.38;4.40;;;;;;;;;;6131275;23;20044;-90
2023/04/30 06:02:46;;;;;;;9.50;4.78;;;;;;;;;;6131410;23;20021;-92
2023/04/30 06:05:31;;;;;;;16.00;4.60;;;;;;;;;;6154032;23;20013;-88
2023/04/30 06:08:16;;;;;;;11.07;4.80;;;;;;;;;;6111618;23;20057;-88
2023/04/30 06:11:02;;;;;;;11.10;4.53;;;;;;;;;;6131619;23;20017;-89
2023/04/30 06:13:48;;;;;;;13.80;4.07;;;;;;;;;;6131954;23;20460;-90
2023/04/30 06:16:33;;;;;;;12.75;5.13;;;;;;;;;;6153447;23;20068;-89
2023/04/30 06:19:18;;;;;;;13.40;4.53;;;;;;;;;;6111563;23;20106;-88
2023/04/30 06:22:02;;;;;;;11.27;4.32;;;;;;;;;;6131320;23;20067;-89
2023/04/30 06:24:47;;;;;;;9.30;4.00;;;;;;;;;;6131322;23;20090;-91
2023/04/30 06:27:31;;;;;;;6.95;4.03;;;;;;;;;;6131861;23;20101;-88
2023/04/30 06:30:16;;;;;;;13.88;4.68;;;;;;;;;;6153790;23;20094;-88
2023/04/30 06:33:00;;;;;;;14.13;4.03;;;;;;;;;;6153691;23;20041;-88
2023/04/30 06:35:45;;;;;;;8.55;3.30;;;;;;;;;;6132293;23;20105;-92
2023/04/30 06:38:29;;;;;;;12.30;3.83;;;;;;;;;;6111444;23;20029;-90
2023/04/30 06:41:15;;;;;;;9.60;3.30;;;;;;;;;;6131130;23;20033;-89
2023/04/30 06:44:00;;;;;;;10.40;3.78;;;;;;;;;;6131090;23;20017;-91
2023/04/30 06:46:44;;;;;;;10.90;3.25;;;;;;;;;;6131857;23;20020;-90
2023/04/30 06:49:29;;;;;;;15.32;5.20;;;;;;;;;;6131668;23;20096;-92
2023/04/30 06:52:13;;;;;;;11.05;3.00;;;;;;;;;;6153263;23;20335;-89
2023/04/30 06:54:58;;;;;;;9.70;2.70;;;;;;;;;;6152891;23;20479;-90
2023/04/30 06:57:43;;;;;;;12.20;4.25;;;;;;;;;;6131765;23;20024;-91
2023/04/30 07:00:27;;;;;;;10.52;2.92;;;;;;;;;;6131547;23;20040;-91
2023/04/30 07:03:12;;;;;;;10.63;3.40;;;;;;;;;;6153247;23;20025;-90
2023/04/30 07:05:57;;;;;;;9.15;2.90;;;;;;;;;;6153204;23;20357;-90
2023/04/30 07:08:42;;;;;;;11.40;3.95;;;;;;;;;;6153724;23;20024;-90
2023/04/30 07:11:27;;;;;;;7.93;2.60;;;;;;;;;;6132147;23;20089;-90
2023/04/30 07:14:11;;;;;;;7.88;2.70;;;;;;;;;;6131114;23;20052;-89
2023/04/30 07:16:55;;;;;;;8.63;2.10;;;;;;;;;;6153586;23;20515;-92
2023/04/30 07:19:40;;;;;;;8.60;2.35;;;;;;;;;;6152890;23;20448;-88
2023/04/30 07:22:26;;;;;;;7.97;2.45;;;;;;;;;;6131418;23;20065;-89
2023/04/30 07:25:14;;;;;;;9.45;2.38;;;;;;;;;;6151628;23;20016;-90
2023/04/30 07:27:59;;;;;;;9.50;3.20;;;;;;;;;;6148949;23;20020;-91
2023/04/30 07:30:43;;;;;;;10.18;2.47;;;;;;;;;;6152420;23;20533;-90
2023/04/30 07:33:29;;;;;;;9.55;2.75;;;;;;;;;;6154331;23;20064;-90
2023/04/30 07:36:13;;;;;;;5.63;1.90;;;;;;;;;;6131116;23;20028;-90
2023/04/30 07:38:58;;;;;;;10.07;2.72;;;;;;;;;;6131010;23;20019;-90
2023/04/30 07:41:43;;;;;;;12.52;2.40;;;;;;;;;;6154015;23;20016;-92
2023/04/30 07:44:27;;;;;;;9.75;2.22;;;;;;;;;;6135205;23;20063;-94
2023/04/30 07:47:12;;;;;;;10.23;2.90;;;;;;;;;;6131238;23;20024;-90
2023/04/30 07:49:57;;;;;;;10.18;2.90;;;;;;;;;;6112388;23;20033;-88
2023/04/30 07:52:42;;;;;;;7.00;2.50;;;;;;;;;;6155029;23;20085;-89
2023/04/30 07:55:27;;;;;;;7.47;2.70;;;;;;;;;;6111871;23;20028;-88
2023/04/30 07:58:11;;;;;;;6.88;3.03;;;;;;;;;;6130131;23;20052;-90
2023/04/30 08:00:56;;;;;;;15.38;2.95;;;;;;;;;;6111025;23;20084;-89
2023/04/30 08:03:40;;;;;;;8.90;2.75;;;;;;;;;;6153189;23;20093;-92
2023/04/30 08:06:28;;;;;;;14.43;3.22;;;;;;;;;;6130963;23;20035;-90
2023/04/30 08:09:14;;;;;;;8.55;2.47;;;;;;;;;;6153481;23;20092;-94
2023/04/30 08:11:59;;;;;;;7.97;2.42;;;;;;;;;;6113082;23;20064;-91
2023/04/30 08:14:43;;;;;;;9.23;3.17;;;;;;;;;;6135117;23;20506;-94
2023/04/30 08:17:28;;;;;;;7.97;3.03;;;;;;;;;;6134458;23;20072;-93
2023/04/30 08:20:12;;;;;;;11.00;3.22;;;;;;;;;;6132929;23;20056;-93
2023/04/30 08:22:57;;;;;;;16.63;2.97;;;;;;;;;;6157438;23;20016;-91
2023/04/30 08:25:42;;;;;;;9.02;2.80;;;;;;;;;;6132820;23;20017;-90
2023/04/30 08:28:26;;;;;;;10.05;3.17;;;;;;;;;;6109097;23;20020;-91
2023/04/30 08:31:11;;;;;;;10.20;3.22;;;;;;;;;;6131524;23;20111;-91
2023/04/30 08:33:56;;;;;;;8.55;2.80;;;;;;;;;;6155122;23;20037;-91
2023/04/30 08:36:41;;;;;;;9.90;2.53;;;;;;;;;;6132653;23;20024;-91
2023/04/30 08:39:25;;;;;;;8.18;2.28;;;;;;;;;;6154370;23;20017;-91
2023/04/30 08:42:12;;;;;;;11.75;3.47;;;;;;;;;;6131318;23;20016;-90
2023/04/30 08:44:59;;;;;;;6.95;2.50;;;;;;;;;;6134695;23;20072;-94
2023/04/30 08:47:45;;;;;;;9.68;2.30;;;;;;;;;;6155268;23;20094;-90
2023/04/30 08:50:29;;;;;;;10.55;2.80;;;;;;;;;;6132090;23;20016;-90
2023/04/30 08:53:16;;;;;;;7.40;2.30;;;;;;;;;;6132247;23;20056;-91
2023/04/30 08:56:01;;;;;;;10.70;2.80;;;;;;;;;;6132817;23;20024;-91
2023/04/30 08:58:45;;;;;;;8.98;2.03;;;;;;;;;;6155219;23;20071;-91
2023/04/30 09:01:33;;;;;;;10.15;3.20;;;;;;;;;;6111873;23;20080;-90
2023/04/30 09:04:18;;;;;;;7.35;2.47;;;;;;;;;;6134577;23;20404;-90
2023/04/30 09:07:03;;;;;;;7.40;1.88;;;;;;;;;;6132640;23;20040;-90
2023/04/30 09:09:52;;;;;;;8.05;2.20;;;;;;;;;;6154920;23;20016;-91
2023/04/30 09:12:38;;;;;;;8.52;2.50;;;;;;;;;;6132315;23;20027;-90
2023/04/30 09:15:23;;;;;;;8.45;2.85;;;;;;;;;;6132022;23;20036;-91
2023/04/30 09:18:13;;;;;;;10.60;2.30;;;;;;;;;;6112320;23;20152;-91
2023/04/30 09:21:01;;;;;;;8.82;2.42;;;;;;;;;;6132816;23;20012;-90
2023/04/30 09:23:54;;;;;;;13.32;3.42;;;;;;;;;;6132916;23;20067;-91
2023/04/30 09:26:39;;;;;;;9.07;2.17;;;;;;;;;;6154616;23;20453;-92
2023/04/30 09:29:35;;;;;;;10.73;2.65;;;;;;;;;;6132016;23;20067;-90
2023/04/30 09:32:20;;;;;;;11.70;2.70;;;;;;;;;;6132149;23;20044;-92
2023/04/30 09:35:05;;;;;;;9.07;3.00;;;;;;;;;;6132651;23;20451;-90
2023/04/30 09:37:49;;;;;;;11.20;2.80;;;;;;;;;;6132474;23;20071;-91
2023/04/30 09:40:35;;;;;;;10.13;2.30;;;;;;;;;;6132073;23;20029;-89
2023/04/30 09:43:20;;;;;;;12.88;3.58;;;;;;;;;;6131773;23;20463;-91
2023/04/30 09:46:05;;;;;;;7.68;2.78;;;;;;;;;;6112034;23;20040;-91
2023/04/30 09:48:56;;;;;;;11.38;2.85;;;;;;;;;;6154588;23;20500;-90
2023/04/30 09:51:57;;;;;;;7.93;2.30;;;;;;;;;;6132101;23;20027;-90
2023/04/30 09:54:44;;;;;;;9.38;2.85;;;;;;;;;;6132012;23;20397;-88
2023/04/30 09:57:31;;;;;;;11.45;4.05;;;;;;;;;;6154288;23;20055;-91
2023/04/30 10:00:16;;;;;;;5.95;2.10;;;;;;;;;;6132150;23;20017;-91
2023/04/30 10:03:06;;;;;;;10.18;2.60;;;;;;;;;;6132336;23;20384;-90
2023/04/30 10:05:50;;;;;;;4.45;2.15;;;;;;;;;;6154423;23;20132;-91
2023/04/30 10:08:56;;;;;;;9.15;2.80;;;;;;;;;;6153640;23;20025;-90
2023/04/30 10:11:43;;;;;;;8.50;2.80;;;;;;;;;;6131456;23;20060;-91
2023/04/30 10:14:29;;;;;;;9.63;2.70;;;;;;;;;;6153660;23;20496;-90
2023/04/30 10:17:16;;;;;;;7.30;2.88;;;16.20;96.70;;;;;;6154168;23;20024;-90
2023/04/30 10:20:06;;;;;;;9.73;2.83;;;;;;;;;;6132155;23;20013;-89
2023/04/30 10:22:51;;;;;;;7.80;3.03;;;;;;;;;;6132219;23;20122;-89
2023/04/30 10:25:39;;;;;;;9.60;3.10;;;;;;;;;;6131382;23;20016;-90
2023/04/30 10:28:24;;;;;;;9.32;3.42;;;;;;;;;;6153468;23;20025;-90
2023/04/30 10:31:10;;;;;;;9.15;2.72;;;;;;;;;;6131895;23;20052;-90
2023/04/30 10:34:16;;;;;;;9.68;2.35;;;16.60;94.10;;;;;;6131992;23;20021;-90
2023/04/30 10:37:04;;;;;;;8.98;3.17;;;;;;;;;;6131972;23;20056;-89
2023/04/30 10:39:50;;;;;;;8.52;2.72;;;;;;;;;;6132583;23;20344;-91
2023/04/30 10:42:35;;;;;;;10.88;2.60;;;;;;;;;;6132495;23;20017;-91
2023/04/30 10:45:34;;;;;;;6.55;2.78;;;;;;;;;;6133299;23;20015;-90
2023/04/30 10:48:25;;;;;;;6.25;2.60;;;;;;;;;;6132240;23;20020;-90
2023/04/30 10:51:10;;;;;;;7.50;2.95;;;;;;;;;;6132586;23;20012;-89
2023/04/30 10:53:55;;;;;;;6.85;2.60;;;;;;;;;;6132576;23;20086;-91
2023/04/30 10:56:39;;;;;;;9.32;2.90;;;;;;;;;;6131065;23;20032;-88
2023/04/30 10:59:24;;;;;;;8.30;2.60;;;;;;;;;;6131872;23;20421;-89
2023/04/30 11:02:10;;;;;;;5.82;2.20;;;;;;;;;;6132134;23;20636;-89
2023/04/30 11:05:07;;;;;;;6.45;2.28;;;;;;;;;;6131851;23;20019;-88
2023/04/30 11:07:56;;;;;;;6.88;2.28;;;;;;;;;;6153791;23;20456;-89
2023/04/30 11:10:56;;;;;;;8.10;2.88;;;;;;;;;;6131440;23;20028;-90
2023/04/30 11:13:47;;;;;;;12.90;3.10;;;;;;;;;;6130916;23;20013;-90
2023/04/30 11:16:35;;;;;;;5.35;2.20;;;;;;;;;;6131102;23;20048;-89
2023/04/30 11:19:23;;;;;;;5.90;2.40;;;;;;;;;;6131785;23;20017;-88
2023/04/30 11:22:08;;;;;;;6.13;2.42;;;;;;;;;;6153388;23;20351;-89
2023/04/30 11:24:53;;;;;;;6.57;2.35;;;;;;;;;;6154509;23;20041;-91
2023/04/30 11:27:39;;;;;;;6.88;2.60;;;;;;;;;;6153292;23;20061;-91
2023/04/30 11:30:24;;;;;;;6.40;2.25;;;;;;;;;;6153650;23;20088;-91
2023/04/30 11:33:10;;;;;;;7.60;2.67;;;;;;;;;;6131770;23;20339;-92
2023/04/30 11:35:55;;;;;;;10.43;2.75;;;;;;;;;;6131594;23;20448;-90
2023/04/30 11:38:40;;;;;;;5.72;2.50;;;;;;;;;;6131200;23;20024;-92
2023/04/30 11:41:26;;;;;;;4.78;2.20;;;;;;;;;;6153712;23;20435;-92
2023/04/30 11:44:23;;;;;;;6.35;2.25;;;;;;;;;;6131400;23;20463;-90
2023/04/30 11:47:08;;;;;;;3.38;2.03;;;;;;;;;;6131412;23;20036;-90
2023/04/30 11:49:52;;;;;;;5.35;2.40;;;;;;;;;;6130770;23;20099;-91
2023/04/30 11:52:37;;;;;;;6.00;2.40;;;;;;;;;;6132478;23;20036;-92
2023/04/30 11:55:23;;;;;;;8.23;2.40;;;;;;;;;;6155002;23;20016;-90
2023/04/30 11:58:09;;;;;;;5.80;2.67;;;;;;;;;;6133433;23;20021;-91
2023/04/30 12:00:59;;;;;;;5.10;2.15;;;;;;;;;;6133011;23;20017;-92
2023/04/30 12:03:47;;;;;;;6.88;2.42;;;;;;;;;;6154872;23;20059;-90
2023/04/30 12:06:32;;;;;;;4.00;2.20;;;;;;;;;;6132731;23;20036;-90
2023/04/30 12:09:17;;;;;;;4.22;2.10;;;;;;;;;;6155291;23;20060;-91
2023/04/30 12:12:01;;;;;;;7.70;2.15;;;;;;;;;;6133300;23;20021;-91
2023/04/30 12:14:46;;;;;;;2.90;1.73;;;;;;;;;;6132585;23;20052;-89
2023/04/30 12:17:34;;;;;;;6.35;2.47;;;;;;;;;;6112514;23;20340;-91
2023/04/30 12:20:20;;;;;;;4.70;2.15;;;;;;;;;;6155161;23;20553;-90
2023/04/30 12:23:05;;;;;;;6.85;2.00;;;;;;;;;;6155284;23;20052;-90
2023/04/30 12:25:50;;;;;;;7.70;2.83;;;;;;;;;;6154712;23;20020;-90
2023/04/30 12:28:35;;;;;;;3.92;2.10;;;;;;;;;;6112513;23;20353;-89
2023/04/30 12:31:20;;;;;;;7.35;2.45;;;;;;;;;;6155933;23;20021;-92
2023/04/30 12:34:08;;;;;;;4.03;1.95;;;;;;;;;;6155771;23;20040;-92
2023/04/30 12:36:53;;;;;;;3.83;2.05;;;;;;;;;;6155207;23;20020;-90
2023/04/30 12:39:38;;;;;;;4.55;2.17;;;;;;;;;;6133051;23;20460;-89
2023/04/30 12:42:23;;;;;;;5.13;2.22;;;;;;;;;;6136069;23;20456;-90
2023/04/30 12:45:08;;;;;;;5.57;1.92;;;;;;;;;;6137947;23;20540;-90
2023/04/30 12:47:53;;;;;;;7.07;2.13;;;;;;;;;;6116562;23;20120;-90
2023/04/30 12:50:38;;;;;;;3.83;1.83;;;;;;;;;;6136818;23;20048;-89
2023/04/30 12:53:23;;;;;;;5.85;2.35;;;;;;;;;;6138818;23;20021;-91
2023/04/30 12:56:11;;;;;;;4.55;2.30;;;;;;;;;;6158695;23;20020;-91
2023/04/30 12:58:56;;;;;;;4.78;2.30;;;;;;;;;;6157364;23;20111;-90
2023/04/30 13:01:44;;;;;;;4.82;2.28;;;;;;;;;;6155384;23;20060;-90
2023/04/30 13:04:29;;;;;;;4.82;2.25;;;;;;;;;;6135400;23;20060;-92
2023/04/30 13:07:14;;;;;;;5.10;2.40;;;;;;;;;;6156722;23;20084;-91
2023/04/30 13:09:59;;;;;;;5.38;2.30;;;;;;;;;;6154932;23;20086;-92
2023/04/30 13:12:44;;;;;;;6.82;2.55;;;;;;;;;;6154567;23;20024;-92
2023/04/30 13:15:28;;;;;;;6.13;2.63;;;;;;;;;;6132535;23;20459;-92
2023/04/30 13:18:15;;;;;;;4.95;2.35;;;;;;;;;;6132610;23;20060;-91
2023/04/30 13:21:00;;;;;;;8.43;2.72;;;;;;;;;;6154457;23;20351;-91
2023/04/30 13:23:44;;;;;;;3.88;2.13;;;;;;;;;;6131886;23;20348;-92
2023/04/30 13:26:29;;;;;;;3.78;2.22;;;;;;;;;;6133418;23;20406;-92
2023/04/30 13:29:14;;;;;;;4.70;2.40;;;;;;;;;;6157682;23;20096;-92
2023/04/30 13:31:58;;;;;;;3.60;2.10;;;;;;;;;;6154196;23;20499;-90
2023/04/30 13:34:43;;;;;;;4.45;1.73;;;;;;;;;;6154312;23;20113;-89
2023/04/30 13:37:31;;;;;;;4.43;2.05;;;;;;;;;;6154576;23;20020;-91
2023/04/30 13:40:16;;;;;;;3.70;1.58;;;;;;;;;;6154580;23;20033;-90
2023/04/30 13:43:01;;;;;;;3.58;1.52;;;;;;;;;;6131759;23;20021;-93
2023/04/30 13:45:45;;;;;;;4.82;1.63;;;;;;;;;;6131939;23;20348;-89
2023/04/30 13:48:30;;;;;;;3.05;1.52;;;;;;;;;;6153594;23;20024;-90
2023/04/30 13:51:15;;;;;;;2.78;1.67;;;;;;;;;;6132668;23;20381;-92
2023/04/30 13:53:59;;;;;;;3.78;1.98;;;;;;;;;;6156450;23;20016;-91
2023/04/30 13:56:44;;;;;;;4.35;1.50;;;;;;;;;;6131939;23;20396;-92
2023/04/30 13:59:28;;;;;;;3.63;1.40;;;;;;;;;;6132035;23;20051;-90
2023/04/30 14:02:13;;;;;;;5.45;1.90;;;;;;;;;;6154370;23;20079;-91
2023/04/30 14:04:58;;;;;;;3.63;1.52;;;;;;;;;;6131620;23;20104;-91
2023/04/30 14:07:43;;;;;;;2.95;1.23;;;;;;;;;;6131294;23;20145;-92
2023/04/30 14:10:28;;;;;;;3.67;1.63;;;;;;;;;;6154653;23;20012;-91
2023/04/30 14:13:12;;;;;;;5.13;1.70;;;;;;;;;;6132750;23;20380;-92
2023/04/30 14:15:57;;;;;;;3.72;1.67;;;;;;;;;;6154816;23;20016;-92
2023/04/30 14:18:42;;;;;;;6.78;1.70;;;;;;;;;;6132785;23;20025;-93
2023/04/30 14:21:28;;;;;;;4.07;2.10;;;;;;;;;;6130666;23;20481;-93
2023/04/30 14:24:14;;;;;;;7.57;1.90;;;;;;;;;;6151648;23;20103;-90
2023/04/30 14:27:00;;;;;;;4.82;1.65;;;;;;;;;;6130242;23;20048;-94
2023/04/30 14:29:45;;;;;;;5.47;1.70;;;;;;;;;;6130289;23;20056;-88
2023/04/30 14:32:29;;;;;;;5.38;1.73;;;;;;;;;;6152051;23;20068;-89
2023/04/30 14:35:14;;;;;;;4.63;1.20;;;;;;;;;;6152293;23;20019;-88
2023/04/30 14:37:58;;;;;;;4.63;1.33;;;;;;;;;;6131163;23;20020;-89
2023/04/30 14:40:43;;;;;;;5.75;1.73;;;;;;;;;;6131744;23;20397;-90
2023/04/30 14:43:28;;;;;;;4.90;2.08;;;;;;;;;;6131782;23;20016;-89
2023/04/30 14:46:13;;;;;;;6.50;1.80;;;;;;;;;;6153233;23;20044;-88
2023/04/30 14:49:00;;;;;;;4.45;1.80;;;;;;;;;;6131208;23;20016;-90
2023/04/30 14:51:45;;;;;;;4.25;1.88;;;;;;;;;;6132842;23;20020;-92
2023/04/30 14:54:29;;;;;;;5.93;1.90;;;;;;;;;;6154257;23;20020;-90
2023/04/30 14:57:14;;;;;;;4.43;2.38;;;;;;;;;;6125027;23;20048;-90
2023/04/30 14:59:59;;;;;;;5.45;1.88;;;;;;;;;;6130843;23;20388;-94
2023/04/30 15:02:44;;;;;;;4.43;2.00;;;;;;;;;;6154069;23;20068;-89
2023/04/30 15:05:29;;;;;;;4.82;1.83;;;;;;;;;;6130865;23;20020;-88
2023/04/30 15:08:13;;;;;;;4.32;1.80;;;;;;;;;;6131120;23;20443;-88
2023/04/30 15:10:58;;;;;;;5.15;1.73;;;;;;;;;;6151546;23;20032;-88
2023/04/30 15:13:42;;;;;;;3.92;1.70;;;;;;;;;;6153188;23;20012;-89
2023/04/30 15:16:27;;;;;;;3.88;1.50;;;;;;;;;;6131026;23;20149;-90
2023/04/30 15:19:12;;;;;;;5.20;1.80;;;;;;;;;;6153682;23;20020;-90
2023/04/30 15:21:56;;;;;;;3.20;1.60;;;;;;;;;;6155377;23;20384;-89
2023/04/30 15:24:41;;;;;;;4.53;1.90;;;;;;;;;;6155349;23;20064;-90
2023/04/30 15:27:29;;;;;;;5.63;1.70;;;;;;;;;;6133509;23;20503;-90
2023/04/30 15:30:14;;;;;;;3.67;1.85;;;;;;;;;;6155065;23;20065;-91
2023/04/30 15:32:58;;;;;;;3.45;1.90;;;;;;;;;;6133608;23;20017;-90
2023/04/30 15:35:43;;;;;;;5.57;1.63;;;;;;;;;;6133704;23;20536;-90
2023/04/30 15:38:28;;;;;;;4.40;1.50;;;;;;;;;;6155033;23;20041;-90
2023/04/30 15:41:12;;;;;;;4.15;1.70;;;;;;;;;;6132617;23;20017;-89
2023/04/30 15:43:57;;;;;;;3.88;2.20;;;;;;;;;;6155659;23;20048;-89
2023/04/30 15:46:42;;;;;;;2.83;1.15;;;;;;;;;;6155635;23;20036;-89
2023/04/30 15:49:26;;;;;;;5.72;2.05;;;;;;;;;;6133466;23;20452;-89
2023/04/30 15:52:11;;;;;;;4.43;2.03;;;;;;;;;;6155027;23;20012;-90
2023/04/30 15:54:55;;;;;;;3.22;1.45;;;;;;;;;;6112821;23;20021;-88
2023/04/30 15:57:40;;;;;;;5.75;2.30;;;;;;;;;;6156844;23;20141;-91
2023/04/30 16:00:25;;;;;;;4.95;1.73;;;;;;;;;;6114487;23;20498;-94
2023/04/30 16:03:10;;;;;;;4.50;1.80;;;;;;;;;;6113519;23;20452;-93
2023/04/30 16:05:55;;;;;;;3.10;1.52;;;;;;;;;;6159798;23;20059;-91
2023/04/30 16:08:40;;;;;;;6.20;3.25;;;;;;;;;;6155573;23;20025;-90
2023/04/30 16:11:24;;;;;;;7.85;3.13;;;;;;;;;;6133861;23;20020;-91
2023/04/30 16:14:10;;;;;;;7.13;1.92;;;;;;;;;;6134858;23;20052;-90
2023/04/30 16:16:55;;;;;;;5.35;2.25;;;;;;;;;;6134121;23;20024;-91
2023/04/30 16:19:40;;;;;;;4.25;1.77;;;;;;;;;;6133459;23;20052;-92
2023/04/30 16:22:26;;;;;;;6.95;2.17;;;;;;;;;;6132826;23;20254;-92
2023/04/30 16:25:11;;;;;;;8.02;2.08;;;;;;;;;;6154674;23;20016;-92
2023/04/30 16:27:56;;;;;;;4.10;1.83;;;;;;;;;;6155751;23;20017;-90